Currently 78°F in San Jacinto, California, USA
78°F
91°F / 61°F
3 mph SW
0.00"
Thursday, August 17, 2017 8:12 PM PDT

San Jacinto, California Weather Summary
Last 36 Hours

Temperature Winds Hourly Humidity Dewpoint
Time Report Norm Report Norm Max Gusts Precip. Rpt. Norm Rpt. Norm Pressure
1Thu 08:12 PM  77.9°F  80°F  3 mph SW  1 mph  7 mph  0.00"  28%  36%  41°F  50°F  30.03"
Thu 08:00 PM  78.4°F  81°F  2 mph SW  1 mph  10 mph  0.00"  28%  34%  41°F  50°F  30.03"
Thu 07:00 PM  81.3°F  86°F  6 mph S  3 mph  14 mph  0.00"  26%  27%  42°F  47°F  30.00"
Thu 06:00 PM  84.7°F  90°F  9 mph SW  4 mph  15 mph  0.00"  27%  22%  46°F  45°F  29.98"
Thu 05:00 PM  87.3°F  93°F  10 mph SW  5 mph  16 mph  0.00"  32%  20%  53°F  45°F  29.97"
Thu 04:00 PM  89.2°F  94°F  9 mph S  4 mph  18 mph  0.00"  32%  18%  55°F  43°F  29.98"
2Thu 03:20 PM  90.9°F  94°F  10 mph SW  4 mph  16 mph  ----  28%  18%  52°F  42°F  29.98"
Thu 03:00 PM  90.1°F  94°F  8 mph W  4 mph  13 mph  0.00"  30%  18%  53°F  42°F  29.98"
Thu 02:00 PM  87.3°F  94°F  3 mph SW  3 mph  14 mph  0.00"  33%  18%  54°F  42°F  30.01"
Thu 01:00 PM  85.8°F  92°F  8 mph W  2 mph  10 mph  0.00"  33%  19%  52°F  43°F  30.03"
Thu 12:00 PM  82.6°F  89°F  4 mph NW  1 mph  8 mph  0.00"  35%  23%  51°F  45°F  30.05"
Thu 11:00 AM  80.1°F  85°F  calm  1 mph  6 mph  0.00"  39%  29%  52°F  48°F  30.07"
Thu 10:00 AM  75.4°F  80°F  1 mph N  1 mph  3 mph  0.00"  41%  38%  49°F  51°F  30.08"
Thu 09:00 AM  70.2°F  75°F  1 mph W  calm  3 mph  0.00"  51%  47%  51°F  52°F  30.08"
Thu 08:00 AM  66.0°F  70°F  calm  calm  2 mph  0.00"  56%  55%  49°F  52°F  30.08"
Thu 07:00 AM  61.5°F  65°F  1 mph N  calm  1 mph  0.00"  59%  63%  46°F  51°F  30.06"
Thu 06:00 AM  60.8°F  64°F  calm  calm  none  0.00"  58%  63%  45°F  51°F  30.05"
3Thu 05:57 AM  60.8°F  64°F  calm  calm  none  ----  58%  63%  45°F  51°F  30.05"
Thu 05:00 AM  61.5°F  65°F  calm  calm  none  0.00"  55%  62%  45°F  51°F  30.03"
Thu 04:00 AM  62.8°F  66°F  calm  calm  none  0.00"  53%  61%  45°F  52°F  30.03"
Thu 03:00 AM  63.7°F  67°F  calm  calm  none  0.00"  51%  60%  45°F  52°F  30.03"
Thu 02:00 AM  65.1°F  69°F  calm  calm  none  0.00"  51%  58%  46°F  53°F  30.04"
Thu 01:00 AM  67.3°F  70°F  calm  calm  none  0.00"  50%  57%  47°F  54°F  30.04"
Thu 12:00 AM  68.5°F  72°F  calm  calm  none  0.00"  43%  54%  44°F  53°F  30.03"
Wed 11:00 PM  70.2°F  74°F  calm  calm  none  0.00"  32%  50%  38°F  53°F  30.03"
Wed 10:00 PM  71.4°F  76°F  calm  calm  3 mph  0.00"  27%  45%  34°F  52°F  30.03"
Wed 09:00 PM  72.7°F  78°F  2 mph SW  1 mph  7 mph  0.00"  30%  41%  38°F  51°F  30.02"
Wed 08:00 PM  74.7°F  81°F  2 mph SW  1 mph  9 mph  0.00"  29%  35%  39°F  50°F  30.00"
Wed 07:00 PM  78.1°F  86°F  2 mph SW  3 mph  15 mph  0.00"  33%  27%  46°F  47°F  29.98"
Wed 06:00 PM  82.6°F  90°F  7 mph S  4 mph  15 mph  0.00"  37%  22%  53°F  46°F  29.96"
Wed 05:00 PM  85.6°F  93°F  7 mph S  5 mph  11 mph  0.00"  31%  20%  50°F  45°F  29.96"
Wed 04:00 PM  87.3°F  94°F  6 mph S  5 mph  10 mph  0.00"  27%  18%  48°F  43°F  29.97"
Wed 03:00 PM  85.5°F  95°F  4 mph E  4 mph  11 mph  0.00"  29%  17%  49°F  42°F  29.98"
Wed 02:00 PM  82.8°F  94°F  2 mph SE  3 mph  11 mph  0.00"  33%  17%  50°F  41°F  30.01"
Wed 01:00 PM  80.1°F  92°F  6 mph SW  2 mph  11 mph  0.00"  36%  19%  50°F  42°F  30.03"
Wed 12:00 PM  76.1°F  89°F  2 mph S  1 mph  10 mph  0.00"  46%  23%  53°F  45°F  30.04"
Wed 11:00 AM  72.0°F  85°F  3 mph NW  1 mph  8 mph  0.00"  58%  29%  56°F  48°F  30.05"
Wed 10:00 AM  69.4°F  79°F  4 mph SW  1 mph  6 mph  0.00"  63%  38%  56°F  51°F  30.05"
Wed 09:00 AM  66.6°F  74°F  calm  calm  6 mph  0.00"  71%  48%  57°F  52°F  30.06"

  1. Current weather data. No green row appears if the current weather data is also the high or low for the current day.
  2. High temperature for the current day.
  3. Low temperature for the current day.

The San Jacinto, California weather pages are a service of WeatherCurrents. San Jacinto is located in the heart of the San Jacinto Valley, near Hemet, the Soboba Casino, and at the foot of the San Jacinto Mountains.
Copyright ©Thu Aug 17 20:13:21 PDT 2017  WeatherCurrents. All rights reserved. - Submit questions and comments - Privacy Policy

This page automatically refreshes every 10 minutes.